Time;durP1;ratioP1;P1;durP2;ratioP2;P2;SDS_P1;SDS_P2;PMS_P1;PMS_P2;Temp;Humidity;BMP_temperature;BMP_pressure;BME280_temperature;BME280_humidity;BME280_pressure;Samples;Min_cycle;Max_cycle;Signal;HPM_P1;HPM_P2
2023/09/06 00:01:12;;;;;;;4.13;3.47;;;21.80;99.90;;;;;;5068240;28;20800;-66
2023/09/06 00:03:39;;;;;;;3.17;2.88;;;21.70;99.90;;;;;;5068539;28;20296;-66
2023/09/06 00:06:06;;;;;;;3.42;3.22;;;21.70;99.90;;;;;;5068397;28;20221;-66
2023/09/06 00:08:34;;;;;;;3.60;2.95;;;21.60;99.90;;;;;;5072884;28;20206;-66
2023/09/06 00:11:04;;;;;;;3.47;3.17;;;21.60;99.90;;;;;;5088714;28;20206;-66
2023/09/06 00:13:32;;;;;;;2.78;2.63;;;21.50;99.90;;;;;;5088364;28;20191;-65
2023/09/06 00:16:00;;;;;;;3.17;2.90;;;21.50;99.90;;;;;;5099826;28;20202;-65
2023/09/06 00:18:27;;;;;;;3.35;3.15;;;21.40;99.90;;;;;;5108933;28;20220;-65
2023/09/06 00:20:57;;;;;;;5.03;3.20;;;21.40;99.90;;;;;;5095028;28;20205;-65
2023/09/06 00:23:25;;;;;;;4.05;3.17;;;21.40;99.90;;;;;;5088292;28;20213;-65
2023/09/06 00:25:53;;;;;;;3.67;3.38;;;21.40;99.90;;;;;;5087828;28;20653;-65
2023/09/06 00:28:23;;;;;;;4.07;3.38;;;21.40;99.90;;;;;;5088002;28;20230;-65
2023/09/06 00:30:50;;;;;;;3.65;3.00;;;21.40;99.90;;;;;;5070588;28;20188;-65
2023/09/06 00:33:18;;;;;;;3.47;3.17;;;21.50;99.90;;;;;;5083668;28;20246;-66
2023/09/06 00:35:44;;;;;;;4.55;2.85;;;21.40;99.90;;;;;;5082989;28;20235;-65
2023/09/06 00:38:11;;;;;;;4.80;3.08;;;21.50;99.90;;;;;;5067860;28;20266;-65
2023/09/06 00:40:40;;;;;;;3.10;2.90;;;21.40;99.90;;;;;;5067680;28;20215;-66
2023/09/06 00:43:08;;;;;;;3.40;3.13;;;21.40;99.90;;;;;;5067089;28;20295;-65
2023/09/06 00:45:44;;;;;;;3.20;3.00;;;21.30;99.90;;;;;;5082685;28;20297;-66
2023/09/06 00:48:12;;;;;;;3.53;3.22;;;21.30;99.90;;;;;;5107637;28;20218;-66
2023/09/06 00:50:43;;;;;;;4.15;3.38;;;21.20;99.90;;;;;;5107741;28;20210;-65
2023/09/06 00:53:10;;;;;;;3.67;3.38;;;21.20;99.90;;;;;;5107760;28;20198;-65
2023/09/06 00:55:38;;;;;;;3.55;3.30;;;21.20;99.90;;;;;;5107519;28;20301;-65
2023/09/06 00:58:06;;;;;;;3.55;3.33;;;21.20;99.90;;;;;;5094682;28;20330;-65
2023/09/06 01:00:33;;;;;;;4.15;3.85;;;21.10;99.90;;;;;;5087160;28;20339;-66
2023/09/06 01:03:04;;;;;;;4.97;3.60;;;21.10;99.90;;;;;;5087412;28;20202;-65
2023/09/06 01:05:40;;;;;;;4.22;3.60;;;21.20;99.90;;;;;;5082790;28;20540;-65
2023/09/06 01:08:11;;;;;;;4.53;4.10;;;21.20;99.90;;;;;;5076777;28;20222;-66
2023/09/06 01:10:38;;;;;;;4.22;3.83;;;21.30;99.90;;;;;;5076268;28;20246;-65
2023/09/06 01:13:05;;;;;;;4.20;3.60;;;21.30;99.90;;;;;;5066691;28;20340;-66
2023/09/06 01:15:33;;;;;;;4.43;4.03;;;21.30;99.90;;;;;;5066563;28;20629;-65
2023/09/06 01:18:05;;;;;;;3.45;3.22;;;21.20;99.90;;;;;;5067233;28;20250;-66
2023/09/06 01:20:39;;;;;;;3.45;3.17;;;21.20;99.90;;;;;;5069467;28;20206;-65
2023/09/06 01:23:13;;;;;;;4.13;3.72;;;21.10;99.90;;;;;;5078140;28;20196;-65
2023/09/06 01:25:42;;;;;;;3.60;3.30;;;21.00;99.90;;;;;;5082509;28;20711;-65
2023/09/06 01:28:09;;;;;;;6.78;3.60;;;20.90;99.90;;;;;;5086740;28;20265;-65
2023/09/06 01:30:37;;;;;;;4.00;3.70;;;20.90;99.90;;;;;;5086728;28;20294;-65
2023/09/06 01:33:04;;;;;;;3.92;3.63;;;20.80;99.90;;;;;;5086948;28;20210;-65
2023/09/06 01:35:31;;;;;;;3.92;3.60;;;20.70;99.90;;;;;;5084133;28;20343;-65
2023/09/06 01:37:58;;;;;;;3.65;3.35;;;20.70;99.90;;;;;;5066684;28;20292;-65
2023/09/06 01:40:27;;;;;;;3.40;3.20;;;20.60;99.90;;;;;;5066438;28;20207;-66
2023/09/06 01:42:55;;;;;;;5.20;3.78;;;20.60;99.90;;;;;;5065868;28;20207;-66
2023/09/06 01:45:22;;;;;;;3.97;3.63;;;20.60;99.90;;;;;;5077422;28;20703;-66
2023/09/06 01:47:49;;;;;;;4.80;3.58;;;20.50;99.90;;;;;;5083323;28;20314;-65
2023/09/06 01:50:19;;;;;;;3.85;3.58;;;20.50;99.90;;;;;;5066457;28;20208;-65
2023/09/06 01:52:46;;;;;;;3.92;3.42;;;20.50;99.90;;;;;;5066631;28;20214;-65
2023/09/06 01:55:13;;;;;;;3.85;3.55;;;20.30;99.90;;;;;;5065144;28;20207;-65
2023/09/06 01:57:40;;;;;;;4.35;3.95;;;20.30;99.90;;;;;;5065826;28;20310;-65
2023/09/06 02:00:27;;;;;;;4.00;3.63;;;20.30;99.90;;;;;;5065747;28;20206;-66
2023/09/06 02:02:55;;;;;;;5.57;3.50;;;20.30;99.90;;;;;;5065755;28;20199;-65
2023/09/06 02:05:22;;;;;;;3.93;3.73;;;20.20;99.90;;;;;;5080824;28;20309;-66
2023/09/06 02:07:49;;;;;;;3.80;3.50;;;20.30;99.90;;;;;;5086055;28;20226;-65
2023/09/06 02:10:16;;;;;;;4.53;3.37;;;20.20;99.90;;;;;;5086443;28;20290;-65
2023/09/06 02:12:43;;;;;;;3.70;3.40;;;20.20;99.90;;;;;;5085592;28;20301;-66
2023/09/06 02:15:13;;;;;;;4.43;4.03;;;20.20;99.90;;;;;;5085843;28;20321;-65
2023/09/06 02:17:42;;;;;;;3.83;3.63;;;20.10;99.90;;;;;;5082234;28;20219;-65
2023/09/06 02:20:17;;;;;;;4.13;3.83;;;20.20;99.90;;;;;;5065326;28;20295;-66
2023/09/06 02:22:44;;;;;;;5.22;4.22;;;20.30;99.90;;;;;;5066029;28;20206;-65
2023/09/06 02:25:13;;;;;;;4.20;3.90;;;20.40;99.90;;;;;;5075373;28;20239;-66
2023/09/06 02:27:40;;;;;;;4.35;4.00;;;20.40;99.90;;;;;;5065206;28;20277;-66
2023/09/06 02:30:08;;;;;;;4.47;4.05;;;20.40;99.90;;;;;;5064928;28;20215;-65
2023/09/06 02:32:37;;;;;;;4.43;4.05;;;20.50;99.90;;;;;;5077817;28;20210;-65
2023/09/06 02:35:05;;;;;;;4.30;4.00;;;20.50;99.90;;;;;;5085392;28;20294;-65
2023/09/06 02:37:32;;;;;;;4.00;3.70;;;20.50;99.90;;;;;;5085697;28;20207;-65
2023/09/06 02:39:59;;;;;;;5.25;4.07;;;20.50;99.90;;;;;;5085462;28;20209;-66
2023/09/06 02:42:27;;;;;;;4.80;4.50;;;20.50;99.90;;;;;;5085393;28;20259;-66
2023/09/06 02:44:54;;;;;;;5.00;4.50;;;20.50;99.90;;;;;;5086688;28;20203;-65
2023/09/06 02:47:28;;;;;;;4.93;4.25;;;20.50;99.90;;;;;;5106136;28;20217;-65
2023/09/06 02:49:56;;;;;;;5.00;4.35;;;20.50;99.90;;;;;;5105779;28;20408;-65
2023/09/06 02:52:29;;;;;;;4.50;4.20;;;20.50;99.90;;;;;;5105867;28;20352;-65
2023/09/06 02:54:57;;;;;;;4.18;3.78;;;20.50;99.90;;;;;;5105707;28;20210;-65
2023/09/06 02:57:25;;;;;;;5.00;4.38;;;20.50;99.90;;;;;;5096171;28;20207;-65
2023/09/06 02:59:53;;;;;;;4.35;4.05;;;20.50;99.90;;;;;;5084997;28;20210;-65
2023/09/06 03:02:22;;;;;;;4.72;3.97;;;20.50;99.90;;;;;;5085194;28;20395;-65
2023/09/06 03:04:54;;;;;;;4.38;3.90;;;20.50;99.90;;;;;;5085208;28;20253;-65
2023/09/06 03:07:23;;;;;;;6.30;4.30;;;20.50;99.90;;;;;;5085084;28;20195;-65
2023/09/06 03:09:50;;;;;;;4.32;3.92;;;20.40;99.90;;;;;;5084786;28;20214;-64
2023/09/06 03:12:17;;;;;;;5.18;4.68;;;20.30;99.90;;;;;;5076768;28;20321;-64
2023/09/06 03:14:47;;;;;;;4.50;4.20;;;20.20;99.90;;;;;;5080336;28;20943;-65
2023/09/06 03:17:18;;;;;;;4.75;4.15;;;20.10;99.90;;;;;;5064834;28;20572;-65
2023/09/06 03:19:48;;;;;;;4.17;3.77;;;20.00;99.90;;;;;;5064919;28;20195;-64
2023/09/06 03:22:15;;;;;;;4.90;4.50;;;20.00;99.90;;;;;;5064670;28;20316;-64
2023/09/06 03:24:44;;;;;;;4.10;3.80;;;19.90;99.90;;;;;;5069930;28;20598;-65
2023/09/06 03:27:15;;;;;;;5.90;4.05;;;19.90;99.90;;;;;;5084900;28;20296;-65
2023/09/06 03:29:43;;;;;;;5.30;4.57;;;19.90;99.90;;;;;;5084766;28;20226;-64
2023/09/06 03:32:10;;;;;;;4.63;4.20;;;19.80;99.90;;;;;;5084573;28;20207;-64
2023/09/06 03:34:40;;;;;;;5.95;4.00;;;19.80;99.90;;;;;;5065212;28;20294;-64
2023/09/06 03:37:08;;;;;;;4.63;4.20;;;19.80;99.90;;;;;;5064514;28;20210;-64
2023/09/06 03:39:37;;;;;;;4.78;4.40;;;19.70;99.90;;;;;;5078473;28;20245;-65
2023/09/06 03:42:08;;;;;;;5.07;4.57;;;19.70;99.90;;;;;;5084601;28;20553;-66
2023/09/06 03:44:35;;;;;;;5.03;4.67;;;19.60;99.90;;;;;;5084571;28;20224;-66
2023/09/06 03:47:04;;;;;;;4.60;4.20;;;19.60;99.90;;;;;;5084545;28;20293;-66
2023/09/06 03:49:35;;;;;;;5.30;4.57;;;19.60;99.90;;;;;;5084786;28;20325;-65
2023/09/06 03:52:04;;;;;;;5.00;4.60;;;19.50;99.90;;;;;;5081827;28;20867;-65
2023/09/06 03:54:34;;;;;;;4.70;4.30;;;19.50;99.90;;;;;;5064065;28;20207;-65
2023/09/06 03:57:01;;;;;;;4.60;4.20;;;19.50;99.90;;;;;;5064946;28;20208;-65
2023/09/06 03:59:30;;;;;;;5.37;4.67;;;19.40;99.90;;;;;;5064588;28;20298;-64
2023/09/06 04:01:57;;;;;;;4.77;4.40;;;19.50;99.90;;;;;;5064415;28;20330;-65
2023/09/06 04:04:25;;;;;;;5.97;4.53;;;19.40;99.90;;;;;;5064350;28;20234;-65
2023/09/06 04:06:52;;;;;;;4.27;3.97;;;19.40;99.90;;;;;;5072054;28;20286;-65
2023/09/06 04:09:19;;;;;;;4.83;4.23;;;19.40;99.90;;;;;;5081252;28;20334;-65
2023/09/06 04:11:47;;;;;;;4.83;4.53;;;19.40;99.90;;;;;;5063818;28;20211;-65
2023/09/06 04:14:14;;;;;;;7.10;4.80;;;19.40;99.90;;;;;;5064019;28;20210;-65
2023/09/06 04:16:42;;;;;;;4.80;4.40;;;19.30;99.90;;;;;;5080541;28;20309;-65
2023/09/06 04:19:09;;;;;;;4.43;4.13;;;19.30;99.90;;;;;;5086965;28;20665;-65
2023/09/06 04:21:37;;;;;;;5.07;4.57;;;19.20;99.90;;;;;;5087871;28;20238;-65
2023/09/06 04:24:07;;;;;;;5.93;5.07;;;19.30;99.90;;;;;;5087691;28;20211;-65
2023/09/06 04:26:34;;;;;;;5.73;5.13;;;19.30;99.90;;;;;;5087576;28;20207;-65
2023/09/06 04:29:02;;;;;;;5.23;4.83;;;19.20;99.90;;;;;;5087327;28;20318;-65
2023/09/06 04:31:30;;;;;;;6.97;4.87;;;19.20;99.90;;;;;;5083422;28;20196;-65
2023/09/06 04:33:58;;;;;;;5.63;4.50;;;19.20;99.90;;;;;;5076073;28;20674;-65
2023/09/06 04:36:25;;;;;;;7.37;5.00;;;19.20;99.90;;;;;;5077122;28;20213;-65
2023/09/06 04:38:52;;;;;;;10.70;4.80;;;19.20;99.90;;;;;;5066998;28;20301;-65
2023/09/06 04:41:20;;;;;;;5.97;5.20;;;19.20;99.90;;;;;;5066718;28;20326;-65
2023/09/06 04:43:47;;;;;;;6.43;5.10;;;19.20;99.90;;;;;;5066989;28;20779;-65
2023/09/06 04:46:13;;;;;;;7.27;4.63;;;19.20;99.90;;;;;;5067243;28;20682;-66
2023/09/06 04:48:40;;;;;;;8.97;5.10;;;19.10;99.90;;;;;;5067408;28;20588;-65
2023/09/06 04:51:08;;;;;;;5.23;4.73;;;19.20;99.90;;;;;;5067556;28;20656;-65
2023/09/06 04:53:35;;;;;;;6.20;5.00;;;19.20;99.90;;;;;;5067623;28;20294;-65
2023/09/06 04:56:04;;;;;;;5.63;5.00;;;19.20;99.90;;;;;;5067536;28;20319;-65
2023/09/06 04:58:32;;;;;;;6.93;5.27;;;19.20;99.90;;;;;;5068296;28;20740;-65
2023/09/06 05:01:04;;;;;;;6.53;4.90;;;19.20;99.90;;;;;;5086622;28;20242;-66
2023/09/06 05:03:32;;;;;;;6.20;5.70;;;19.20;99.90;;;;;;5087461;28;20249;-65
2023/09/06 05:06:00;;;;;;;6.07;5.47;;;19.20;99.90;;;;;;5081160;28;20930;-65
2023/09/06 05:08:28;;;;;;;5.43;5.03;;;19.20;99.90;;;;;;5066922;28;20239;-65
2023/09/06 05:10:55;;;;;;;5.90;5.17;;;19.30;99.90;;;;;;5066788;28;20298;-65
2023/09/06 05:13:22;;;;;;;5.73;5.23;;;19.30;99.90;;;;;;5066602;28;20872;-66
2023/09/06 05:15:49;;;;;;;5.57;5.07;;;19.40;99.90;;;;;;5068390;28;20218;-65
2023/09/06 05:18:16;;;;;;;5.37;4.97;;;19.40;99.90;;;;;;5084009;28;20227;-65
2023/09/06 05:20:43;;;;;;;8.23;5.30;;;19.40;99.90;;;;;;5082980;28;20231;-65
2023/09/06 05:23:11;;;;;;;7.57;5.00;;;19.40;99.90;;;;;;5065949;28;20211;-65
2023/09/06 05:25:40;;;;;;;5.70;5.20;;;19.50;99.90;;;;;;5065200;28;20239;-65
2023/09/06 05:28:09;;;;;;;4.87;4.47;;;19.50;99.90;;;;;;5064934;28;20207;-65
2023/09/06 05:30:38;;;;;;;5.00;4.60;;;19.50;99.90;;;;;;5081465;28;20210;-65
2023/09/06 05:33:05;;;;;;;4.90;4.50;;;19.60;99.90;;;;;;5085695;28;20207;-65
2023/09/06 05:35:34;;;;;;;5.50;4.70;;;19.60;99.90;;;;;;5082676;28;20215;-65
2023/09/06 05:38:01;;;;;;;5.27;4.83;;;19.60;99.90;;;;;;5065384;28;20228;-65
2023/09/06 05:40:30;;;;;;;5.68;5.10;;;19.60;99.90;;;;;;5067042;28;20323;-65
2023/09/06 05:42:58;;;;;;;5.67;5.10;;;19.70;99.90;;;;;;5067391;28;20211;-65
2023/09/06 05:45:26;;;;;;;11.70;4.53;;;19.70;99.90;;;;;;5071597;28;20211;-65
2023/09/06 05:47:54;;;;;;;5.22;4.82;;;19.70;99.90;;;;;;5085626;28;20613;-65
2023/09/06 05:50:21;;;;;;;5.60;5.07;;;19.70;99.90;;;;;;5085755;28;20969;-65
2023/09/06 05:52:48;;;;;;;8.77;5.13;;;19.70;99.90;;;;;;5081388;28;20202;-65
2023/09/06 05:55:15;;;;;;;5.33;5.00;;;19.70;99.90;;;;;;5072346;28;20210;-65
2023/09/06 05:57:43;;;;;;;5.53;4.65;;;19.80;99.90;;;;;;5083068;28;20386;-65
2023/09/06 06:00:15;;;;;;;5.53;5.13;;;19.80;99.90;;;;;;5068023;28;20219;-66
2023/09/06 06:02:42;;;;;;;4.90;4.50;;;19.80;99.90;;;;;;5077698;28;20208;-65
2023/09/06 06:05:13;;;;;;;5.43;4.90;;;19.90;99.90;;;;;;5070689;28;20231;-65
2023/09/06 06:07:40;;;;;;;5.80;5.20;;;19.90;99.90;;;;;;5085823;28;20254;-65
2023/09/06 06:10:10;;;;;;;6.80;5.35;;;19.90;99.90;;;;;;5085065;28;20335;-65
2023/09/06 06:12:38;;;;;;;5.30;4.78;;;19.90;99.90;;;;;;5077331;28;20203;-65
2023/09/06 06:15:08;;;;;;;5.90;5.45;;;19.90;99.90;;;;;;5065478;28;20619;-65
2023/09/06 06:17:36;;;;;;;5.40;5.00;;;20.00;99.90;;;;;;5071247;28;20286;-66
2023/09/06 06:20:06;;;;;;;7.17;5.13;;;20.00;99.90;;;;;;5065213;28;20204;-66
2023/09/06 06:22:37;;;;;;;6.50;5.10;;;20.00;99.90;;;;;;5076853;28;20285;-66
2023/09/06 06:25:05;;;;;;;5.60;5.10;;;20.00;99.90;;;;;;5085730;28;20195;-66
2023/09/06 06:27:32;;;;;;;5.70;5.20;;;20.00;99.90;;;;;;5084902;28;20202;-67
2023/09/06 06:29:59;;;;;;;15.20;5.68;;;20.00;99.90;;;;;;5083623;28;20778;-66
2023/09/06 06:32:26;;;;;;;10.52;9.45;;;20.00;99.90;;;;;;5085594;28;20321;-66
2023/09/06 06:34:56;;;;;;;20.50;17.57;;;20.10;99.90;;;;;;5085256;28;20829;-66
2023/09/06 06:37:23;;;;;;;7.00;6.35;;;20.10;99.90;;;;;;5067376;28;20204;-66
2023/09/06 06:39:50;;;;;;;5.85;5.28;;;20.20;99.90;;;;;;5064738;28;20215;-66
2023/09/06 06:42:17;;;;;;;5.90;5.50;;;20.20;99.90;;;;;;5065293;28;20299;-66
2023/09/06 06:44:47;;;;;;;5.85;5.30;;;20.20;99.90;;;;;;5065403;28;20299;-67
2023/09/06 06:47:14;;;;;;;10.48;5.47;;;20.20;99.90;;;;;;5105906;28;20202;-67
2023/09/06 06:49:41;;;;;;;6.18;5.57;;;20.20;99.90;;;;;;5105360;28;20253;-66
2023/09/06 06:52:09;;;;;;;5.72;5.30;;;20.30;99.90;;;;;;5094361;28;20326;-66
2023/09/06 06:54:40;;;;;;;5.85;5.35;;;20.30;99.90;;;;;;5085362;28;20305;-67
2023/09/06 06:57:07;;;;;;;5.90;5.40;;;20.40;99.90;;;;;;5084836;28;20199;-66
2023/09/06 06:59:34;;;;;;;5.57;5.13;;;20.40;99.90;;;;;;5084980;28;20313;-67
2023/09/06 07:02:01;;;;;;;5.13;4.72;;;20.40;99.90;;;;;;5085081;28;20241;-67
2023/09/06 07:04:28;;;;;;;5.57;5.18;;;20.50;99.90;;;;;;5085512;28;20666;-66
2023/09/06 07:06:55;;;;;;;5.50;5.00;;;20.50;99.90;;;;;;5084349;28;20684;-66
2023/09/06 07:09:23;;;;;;;5.85;5.20;;;20.60;99.90;;;;;;5085169;28;20266;-66
2023/09/06 07:11:50;;;;;;;7.93;5.93;;;20.60;99.90;;;;;;5083780;28;20297;-67
2023/09/06 07:14:17;;;;;;;6.03;5.43;;;20.70;99.90;;;;;;5064108;28;20212;-66
2023/09/06 07:16:44;;;;;;;6.70;5.00;;;20.70;99.90;;;;;;5098888;28;20213;-66
2023/09/06 07:19:11;;;;;;;5.67;5.13;;;20.80;99.90;;;;;;5104991;28;20220;-66
2023/09/06 07:21:38;;;;;;;5.85;5.35;;;20.80;99.90;;;;;;5105063;28;20293;-66
2023/09/06 07:24:06;;;;;;;5.38;5.03;;;20.90;99.90;;;;;;5095864;28;20230;-66
2023/09/06 07:26:34;;;;;;;8.50;5.35;;;20.90;99.90;;;;;;5084951;28;20209;-66
2023/09/06 07:29:01;;;;;;;6.57;5.85;;;21.00;99.90;;;;;;5084660;28;20314;-66
2023/09/06 07:31:28;;;;;;;6.28;5.40;;;21.10;99.90;;;;;;5084674;28;20207;-66
2023/09/06 07:33:55;;;;;;;6.18;5.57;;;21.10;99.90;;;;;;5084654;28;20301;-66
2023/09/06 07:36:22;;;;;;;5.97;5.47;;;21.20;99.90;;;;;;5084596;28;20676;-66
2023/09/06 07:38:54;;;;;;;5.90;5.30;;;21.20;99.90;;;;;;5084541;28;20252;-66
2023/09/06 07:41:21;;;;;;;5.63;5.20;;;21.30;99.90;;;;;;5084760;28;20198;-66
2023/09/06 07:43:50;;;;;;;5.53;5.13;;;21.40;99.90;;;;;;5084845;28;20565;-66
2023/09/06 07:46:17;;;;;;;5.75;4.95;;;21.40;99.90;;;;;;5084635;28;20203;-66
2023/09/06 07:48:44;;;;;;;5.50;5.10;;;21.50;99.90;;;;;;5084641;28;20304;-66
2023/09/06 07:51:12;;;;;;;7.80;5.15;;;21.50;99.90;;;;;;5084486;28;20687;-66
2023/09/06 07:53:39;;;;;;;6.88;5.45;;;21.60;99.90;;;;;;5087991;28;20682;-66
2023/09/06 07:56:07;;;;;;;5.68;5.18;;;21.60;99.90;;;;;;5088761;28;20648;-66
2023/09/06 07:58:34;;;;;;;7.68;4.78;;;21.70;99.90;;;;;;5088023;28;20260;-66
2023/09/06 08:01:04;;;;;;;6.28;4.90;;;21.80;99.90;;;;;;5088155;28;20325;-66
2023/09/06 08:03:30;;;;;;;5.43;4.85;;;21.90;99.90;;;;;;5067139;28;20301;-66
2023/09/06 08:05:57;;;;;;;8.40;5.00;;;21.90;99.90;;;;;;5067461;28;20715;-66
2023/09/06 08:08:24;;;;;;;5.50;5.00;;;22.00;99.90;;;;;;5068135;28;20211;-66
2023/09/06 08:10:51;;;;;;;5.05;4.75;;;22.10;99.90;;;;;;5067645;28;20342;-66
2023/09/06 08:13:18;;;;;;;6.50;4.88;;;22.10;99.90;;;;;;5081181;28;20276;-66
2023/09/06 08:15:46;;;;;;;5.25;4.85;;;22.10;99.90;;;;;;5079270;28;20207;-66
2023/09/06 08:18:14;;;;;;;5.20;4.80;;;22.20;99.90;;;;;;5068213;28;20215;-66
2023/09/06 08:20:41;;;;;;;5.18;4.78;;;22.30;99.90;;;;;;5067990;28;20211;-66
2023/09/06 08:23:08;;;;;;;5.35;4.82;;;22.30;99.90;;;;;;5068123;28;20302;-66
2023/09/06 08:25:35;;;;;;;5.05;4.57;;;22.40;99.90;;;;;;5068343;28;20203;-66
2023/09/06 08:28:02;;;;;;;5.82;4.60;;;22.40;99.90;;;;;;5067907;28;20302;-66
2023/09/06 08:30:29;;;;;;;6.13;4.80;;;22.50;99.90;;;;;;5067508;28;20271;-66
2023/09/06 08:32:56;;;;;;;5.15;4.75;;;22.60;99.90;;;;;;5067930;28;20345;-66
2023/09/06 08:35:25;;;;;;;5.40;4.90;;;22.60;99.90;;;;;;5067538;28;20841;-66
2023/09/06 08:37:52;;;;;;;5.70;5.05;;;22.70;99.90;;;;;;5067656;28;20286;-68
2023/09/06 08:40:21;;;;;;;5.00;4.60;;;22.80;99.90;;;;;;5067691;28;20208;-66
2023/09/06 08:42:49;;;;;;;10.90;4.93;;;22.90;99.90;;;;;;5067233;28;20306;-66
2023/09/06 08:45:22;;;;;;;8.55;4.95;;;22.90;99.90;;;;;;5076974;28;20294;-66
2023/09/06 08:47:50;;;;;;;5.82;5.22;;;23.00;99.90;;;;;;5107895;28;20212;-66
2023/09/06 08:50:17;;;;;;;5.97;4.82;;;23.10;99.90;;;;;;5106795;28;20265;-66
2023/09/06 08:52:50;;;;;;;4.93;4.53;;;23.20;99.90;;;;;;5087596;28;20211;-66
2023/09/06 08:55:18;;;;;;;11.88;5.03;;;23.30;99.90;;;;;;5087409;28;20199;-67
2023/09/06 08:57:45;;;;;;;16.33;4.93;;;23.30;99.90;;;;;;5087281;28;20210;-65
2023/09/06 09:00:14;;;;;;;6.65;4.88;;;23.40;99.90;;;;;;5087185;28;20195;-67
2023/09/06 09:02:42;;;;;;;5.47;4.97;;;23.40;99.90;;;;;;5087175;28;20333;-67
2023/09/06 09:05:11;;;;;;;4.93;4.53;;;23.50;99.90;;;;;;5087300;28;20574;-67
2023/09/06 09:07:38;;;;;;;5.25;4.70;;;23.60;99.90;;;;;;5087338;28;20326;-68
2023/09/06 09:10:09;;;;;;;4.50;4.15;;;23.70;99.90;;;;;;5104953;28;20265;-67
2023/09/06 09:12:37;;;;;;;7.05;4.55;;;23.80;99.90;;;;;;5107425;28;20277;-67
2023/09/06 09:15:06;;;;;;;4.90;4.45;;;23.90;99.90;;;;;;5104038;27;20732;-68
2023/09/06 09:17:37;;;;;;;4.72;3.92;;;24.00;99.90;;;;;;5087087;28;20272;-67
2023/09/06 09:20:05;;;;;;;4.85;4.32;;;24.20;99.90;;;;;;5086963;28;20238;-67
2023/09/06 09:22:34;;;;;;;5.70;4.43;;;24.20;99.90;;;;;;5086890;28;20218;-67
2023/09/06 09:25:04;;;;;;;4.82;3.90;;;24.30;99.90;;;;;;5086371;28;20203;-67
2023/09/06 09:27:33;;;;;;;7.28;4.43;;;24.30;99.90;;;;;;5086488;28;20242;-67
2023/09/06 09:30:02;;;;;;;6.40;4.40;;;24.30;99.90;;;;;;5086555;28;20215;-67
2023/09/06 09:32:30;;;;;;;5.78;4.18;;;24.40;99.90;;;;;;5086537;28;20215;-66
2023/09/06 09:34:57;;;;;;;8.88;5.03;;;24.50;99.90;;;;;;5086309;28;20298;-66
2023/09/06 09:37:29;;;;;;;4.13;3.83;;;24.50;99.90;;;;;;5086476;28;20294;-66
2023/09/06 09:39:56;;;;;;;4.75;4.32;;;24.60;99.90;;;;;;5086494;28;20240;-66
2023/09/06 09:42:23;;;;;;;4.32;4.00;;;24.60;99.90;;;;;;5086291;28;20409;-66
2023/09/06 09:45:02;;;;;;;4.65;4.25;;;24.80;99.90;;;;;;5087293;28;20203;-66
2023/09/06 09:47:31;;;;;;;5.05;3.90;;;24.80;99.90;;;;;;5098155;28;20293;-66
2023/09/06 09:50:00;;;;;;;4.50;4.10;;;24.80;99.90;;;;;;5085826;28;20744;-66
2023/09/06 09:52:31;;;;;;;5.88;4.45;;;25.00;99.90;;;;;;5086326;28;20286;-66
2023/09/06 09:54:59;;;;;;;4.70;4.30;;;25.10;99.90;;;;;;5086431;28;20223;-66
2023/09/06 09:57:27;;;;;;;5.35;4.57;;;25.30;99.90;;;;;;5086039;28;20301;-67
2023/09/06 09:59:55;;;;;;;5.45;4.35;;;25.40;99.90;;;;;;5086034;28;20760;-66
2023/09/06 10:02:26;;;;;;;5.18;3.88;;;25.50;99.90;;;;;;5085899;28;20230;-66
2023/09/06 10:04:54;;;;;;;4.68;4.13;;;25.40;99.90;;;;;;5080657;28;20617;-66
2023/09/06 10:07:22;;;;;;;5.32;4.30;;;25.50;99.90;;;;;;5066089;28;20210;-66
2023/09/06 10:09:50;;;;;;;6.63;4.95;;;25.50;99.90;;;;;;5065629;28;20285;-66
2023/09/06 10:12:18;;;;;;;6.53;3.78;;;25.70;99.90;;;;;;5066154;28;20204;-66
2023/09/06 10:14:45;;;;;;;3.83;3.63;;;25.70;99.90;;;;;;5065230;28;20212;-66
2023/09/06 10:17:12;;;;;;;4.32;4.03;;;25.80;99.90;;;;;;5065818;28;20247;-67
2023/09/06 10:19:42;;;;;;;7.30;4.43;;;25.90;99.90;;;;;;5065968;28;20226;-66
2023/09/06 10:22:14;;;;;;;7.60;4.55;;;26.10;99.90;;;;;;5065796;28;20203;-66
2023/09/06 10:24:43;;;;;;;4.03;3.60;;;26.40;99.90;;;;;;5079147;28;20649;-67
2023/09/06 10:27:12;;;;;;;4.32;3.67;;;26.40;99.90;;;;;;5085807;28;20209;-67
2023/09/06 10:29:52;;;;;;;7.30;4.80;;;26.40;99.90;;;;;;5086019;28;20210;-67
2023/09/06 10:32:20;;;;;;;4.53;4.10;;;26.40;99.90;;;;;;5086172;28;20289;-67
2023/09/06 10:35:24;;;;;;;5.10;4.60;;;26.60;99.90;;;;;;5086093;28;20227;-67
2023/09/06 10:38:05;;;;;;;9.60;4.93;;;26.60;99.90;;;;;;5065707;28;20187;-67
2023/09/06 10:41:10;;;;;;;5.82;4.38;;;26.80;99.90;;;;;;5065460;28;20693;-66
2023/09/06 10:43:53;;;;;;;4.72;4.32;;;26.90;99.90;;;;;;5079875;28;20636;-67
2023/09/06 10:46:31;;;;;;;4.57;4.18;;;27.00;99.90;;;;;;5091662;28;20688;-66
2023/09/06 10:49:22;;;;;;;4.28;3.88;;;27.10;99.90;;;;;;5085349;28;20208;-67
2023/09/06 10:52:01;;;;;;;6.57;4.43;;;27.30;99.90;;;;;;5085449;28;20584;-67
2023/09/06 10:54:38;;;;;;;5.03;4.10;;;27.40;99.30;;;;;;5085526;28;20745;-67
2023/09/06 10:57:06;;;;;;;5.88;3.97;;;27.50;99.30;;;;;;5085231;28;20730;-67
2023/09/06 10:59:37;;;;;;;4.40;3.95;;;27.60;99.80;;;;;;5085205;28;20294;-67
2023/09/06 11:02:25;;;;;;;5.75;4.15;;;27.60;99.90;;;;;;5085111;28;20268;-67
2023/09/06 11:05:05;;;;;;;5.30;4.80;;;27.60;98.80;;;;;;5085574;28;20199;-67
2023/09/06 11:07:41;;;;;;;4.90;4.07;;;27.90;98.70;;;;;;5085586;28;20603;-66
2023/09/06 11:10:10;;;;;;;5.40;4.05;;;27.90;99.10;;;;;;5085359;28;20254;-66
2023/09/06 11:12:38;;;;;;;4.55;4.05;;;27.90;98.80;;;;;;5085048;28;20680;-66
2023/09/06 11:15:06;;;;;;;4.68;4.25;;;27.90;99.00;;;;;;5085155;28;20223;-66
2023/09/06 11:17:34;;;;;;;6.80;4.07;;;28.00;99.30;;;;;;5085798;28;20199;-67
2023/09/06 11:20:12;;;;;;;5.13;4.40;;;28.10;99.30;;;;;;5085210;28;20211;-66
2023/09/06 11:22:48;;;;;;;6.55;4.40;;;28.10;99.10;;;;;;5085530;28;20198;-66
2023/09/06 11:25:19;;;;;;;5.13;4.35;;;28.20;99.10;;;;;;5084759;28;20782;-66
2023/09/06 11:27:47;;;;;;;4.50;4.20;;;28.40;98.20;;;;;;5083458;28;20298;-66
2023/09/06 11:30:18;;;;;;;4.95;3.85;;;28.40;98.60;;;;;;5084819;28;20572;-67
2023/09/06 11:32:46;;;;;;;4.45;4.05;;;28.50;98.90;;;;;;5085304;28;20654;-66
2023/09/06 11:35:14;;;;;;;4.80;3.67;;;28.60;99.10;;;;;;5085000;28;20260;-66
2023/09/06 11:37:47;;;;;;;5.07;3.35;;;28.60;98.10;;;;;;5065005;28;20208;-67
2023/09/06 11:40:15;;;;;;;5.18;3.83;;;28.70;97.30;;;;;;5065056;28;20218;-66
2023/09/06 11:42:44;;;;;;;4.50;4.10;;;28.80;97.40;;;;;;5064270;28;20215;-66
2023/09/06 11:45:16;;;;;;;4.40;3.97;;;28.90;97.00;;;;;;5084513;28;20215;-66
2023/09/06 11:47:44;;;;;;;4.43;4.10;;;29.10;96.50;;;;;;5084773;28;20190;-66
2023/09/06 11:50:13;;;;;;;3.88;3.58;;;29.20;96.70;;;;;;5084648;28;20241;-66
2023/09/06 11:52:47;;;;;;;10.25;4.10;;;29.30;96.50;;;;;;5084684;28;20195;-66
2023/09/06 11:55:16;;;;;;;5.32;3.60;;;29.40;97.10;;;;;;5084905;28;20268;-66
2023/09/06 11:57:50;;;;;;;5.97;3.92;;;29.60;96.60;;;;;;5092604;28;20202;-66
2023/09/06 12:00:25;;;;;;;4.55;4.00;;;29.80;95.90;;;;;;5104930;28;20295;-66
2023/09/06 12:02:53;;;;;;;4.80;4.38;;;29.80;95.90;;;;;;5103900;28;20710;-66
2023/09/06 12:05:25;;;;;;;4.80;3.92;;;29.90;95.80;;;;;;5104435;28;21205;-66
2023/09/06 12:07:55;;;;;;;4.40;4.00;;;30.00;96.20;;;;;;5103879;28;20684;-67
2023/09/06 12:10:23;;;;;;;4.00;3.70;;;30.10;96.50;;;;;;5104083;28;20313;-67
2023/09/06 12:12:51;;;;;;;4.75;3.90;;;30.30;95.80;;;;;;5103456;28;20210;-67
2023/09/06 12:15:19;;;;;;;4.10;3.70;;;30.30;96.20;;;;;;5099098;28;20218;-67
2023/09/06 12:17:47;;;;;;;4.30;3.90;;;30.40;95.40;;;;;;5083300;28;20286;-67
2023/09/06 12:20:18;;;;;;;5.22;3.90;;;30.40;94.50;;;;;;5083263;28;20297;-65
2023/09/06 12:22:45;;;;;;;6.38;3.85;;;30.50;94.00;;;;;;5083136;28;20211;-65
2023/09/06 12:25:15;;;;;;;3.90;3.63;;;30.60;94.20;;;;;;5083315;28;20207;-65
2023/09/06 12:27:42;;;;;;;7.70;4.10;;;30.60;94.20;;;;;;5083175;28;20206;-65
2023/09/06 12:30:10;;;;;;;4.15;3.75;;;30.70;94.60;;;;;;5083431;28;20229;-66
2023/09/06 12:32:37;;;;;;;4.28;3.50;;;30.80;94.60;;;;;;5083464;28;20211;-65
2023/09/06 12:35:05;;;;;;;4.75;3.67;;;31.00;94.00;;;;;;5083403;28;20211;-65
2023/09/06 12:37:36;;;;;;;5.05;3.65;;;31.10;94.40;;;;;;5064205;28;20257;-66
2023/09/06 12:40:07;;;;;;;5.45;3.47;;;31.30;93.60;;;;;;5066796;28;20199;-66
2023/09/06 12:42:35;;;;;;;5.32;3.88;;;31.30;93.00;;;;;;5066962;28;20192;-66
2023/09/06 12:45:03;;;;;;;4.15;3.70;;;31.30;92.80;;;;;;5082510;28;20243;-66
2023/09/06 12:47:33;;;;;;;5.68;3.72;;;31.50;93.20;;;;;;5066107;28;20662;-66
2023/09/06 12:50:02;;;;;;;6.57;3.55;;;31.60;93.40;;;;;;5066403;28;20221;-66
2023/09/06 12:52:29;;;;;;;3.88;3.58;;;31.60;93.10;;;;;;5066292;28;20257;-68
2023/09/06 12:54:56;;;;;;;3.83;3.10;;;31.70;93.30;;;;;;5066120;28;20565;-66